Time;durP1;ratioP1;P1;durP2;ratioP2;P2;SDS_P1;SDS_P2;PMS_P1;PMS_P2;Temp;Humidity;BMP_temperature;BMP_pressure;BME280_temperature;BME280_humidity;BME280_pressure;Samples;Min_cycle;Max_cycle;Signal;HPM_P1;HPM_P2
2022/04/09 00:00:24;;;;;;;7.47;4.37;;;;;;;5.39;82.06;97972.56;4195365;28;20232;-64
2022/04/09 00:02:51;;;;;;;7.57;3.83;;;;;;;5.32;82.53;97967.16;4202326;28;20659;-64
2022/04/09 00:05:17;;;;;;;7.40;3.90;;;;;;;5.36;83.41;97963.19;4173091;28;20233;-62
2022/04/09 00:07:44;;;;;;;10.20;4.47;;;;;;;5.39;82.95;97962.84;4177135;28;20361;-63
2022/04/09 00:10:11;;;;;;;7.80;4.00;;;;;;;5.37;83.83;97956.91;4191532;28;20232;-63
2022/04/09 00:12:38;;;;;;;7.67;3.93;;;;;;;5.33;84.50;97955.59;4187500;28;20348;-64
2022/04/09 00:15:06;;;;;;;9.37;4.70;;;;;;;5.43;83.33;97955.38;4196182;28;20228;-63
2022/04/09 00:17:40;;;;;;;9.40;4.07;;;;;;;5.37;84.10;97956.91;4200267;28;20280;-63
2022/04/09 00:20:08;;;;;;;10.83;4.33;;;;;;;5.34;84.82;97941.44;4182071;28;20398;-64
2022/04/09 00:22:35;;;;;;;8.97;5.00;;;;;;;5.39;84.73;97940.94;4193405;28;21459;-62
2022/04/09 00:25:01;;;;;;;9.23;4.40;;;;;;;5.39;84.79;97939.09;4172471;28;20238;-62
2022/04/09 00:27:28;;;;;;;10.00;4.77;;;;;;;5.35;85.29;97937.81;4190014;28;20292;-63
2022/04/09 00:29:55;;;;;;;10.70;4.60;;;;;;;5.34;84.85;97933.53;4164625;28;20236;-65
2022/04/09 00:32:21;;;;;;;9.63;5.07;;;;;;;5.27;85.45;97927.31;4183062;28;21190;-63
2022/04/09 00:34:48;;;;;;;9.40;4.67;;;;;;;5.18;86.53;97929.16;4166628;28;21410;-65
2022/04/09 00:37:15;;;;;;;6.90;4.57;;;;;;;5.20;87.09;97926.34;4187621;28;20316;-62
2022/04/09 00:39:41;;;;;;;9.83;4.70;;;;;;;5.15;86.75;97923.41;4179523;28;20253;-62
2022/04/09 00:42:18;;;;;;;10.43;5.17;;;;;;;5.24;87.00;97925.00;4169785;28;20639;-62
2022/04/09 00:44:45;;;;;;;10.10;4.80;;;;;;;5.20;87.10;97921.91;4205794;28;20302;-66
2022/04/09 00:47:12;;;;;;;10.13;4.67;;;;;;;5.19;87.29;97916.78;4178550;28;20232;-62
2022/04/09 00:49:40;;;;;;;11.60;5.20;;;;;;;5.25;87.66;97924.03;4199838;28;23039;-61
2022/04/09 00:52:08;;;;;;;13.90;6.23;;;;;;;5.20;87.21;97926.34;4189908;28;20285;-63
2022/04/09 00:54:38;;;;;;;11.60;5.57;;;;;;;5.22;87.87;97925.19;4183825;28;23659;-63
2022/04/09 00:57:06;;;;;;;12.03;6.23;;;;;;;5.23;87.95;97921.53;4185192;28;20240;-63
2022/04/09 00:59:37;;;;;;;11.03;6.00;;;;;;;5.10;89.06;97928.38;4202354;28;22911;-64
2022/04/09 01:02:03;;;;;;;15.97;6.43;;;;;;;5.05;89.61;97929.69;4157310;28;20421;-63
2022/04/09 01:04:33;;;;;;;12.60;6.20;;;;;;;5.03;89.94;97923.81;4174157;28;20291;-62
2022/04/09 01:07:00;;;;;;;14.30;6.30;;;;;;;5.04;89.77;97925.44;4177478;28;25496;-62
2022/04/09 01:09:27;;;;;;;13.87;6.90;;;;;;;5.03;90.57;97918.53;4179129;28;23812;-65
2022/04/09 01:11:55;;;;;;;13.50;6.60;;;;;;;5.00;91.29;97928.59;4179085;28;21722;-63
2022/04/09 01:14:21;;;;;;;12.90;6.60;;;;;;;5.04;91.02;97927.25;4181355;28;20660;-62
2022/04/09 01:16:49;;;;;;;13.53;6.70;;;;;;;5.06;90.79;97928.72;4203553;28;20244;-64
2022/04/09 01:19:15;;;;;;;13.77;6.30;;;;;;;5.06;91.36;97923.44;4172334;28;20344;-64
2022/04/09 01:21:42;;;;;;;13.87;7.23;;;;;;;4.95;92.18;97929.09;4187605;28;20233;-65
2022/04/09 01:24:08;;;;;;;13.73;6.90;;;;;;;4.81;92.65;97929.81;4195970;28;20246;-63
2022/04/09 01:26:35;;;;;;;13.83;7.33;;;;;;;4.92;92.81;97936.53;4171949;28;20245;-63
2022/04/09 01:29:02;;;;;;;15.60;7.10;;;;;;;4.92;93.04;97939.16;4187915;28;21102;-62
2022/04/09 01:31:29;;;;;;;14.63;6.97;;;;;;;4.92;93.58;97934.72;4193062;28;21718;-61
2022/04/09 01:33:55;;;;;;;14.73;7.33;;;;;;;4.95;93.57;97937.00;4185946;28;25617;-63
2022/04/09 01:36:22;;;;;;;15.93;8.13;;;;;;;4.98;93.20;97939.28;4182483;28;20376;-63
2022/04/09 01:38:48;;;;;;;15.00;7.53;;;;;;;4.92;93.25;97932.09;4187765;28;20314;-62
2022/04/09 01:41:15;;;;;;;11.47;6.57;;;;;;;4.91;93.35;97905.88;4189941;28;21990;-63
2022/04/09 01:43:41;;;;;;;14.73;7.27;;;;;;;4.86;93.51;97922.22;4186364;28;20271;-65
2022/04/09 01:46:08;;;;;;;15.80;7.70;;;;;;;4.90;93.80;97928.78;4177450;28;20271;-63
2022/04/09 01:48:34;;;;;;;12.90;7.30;;;;;;;4.88;94.50;97922.88;4186797;28;20342;-62
2022/04/09 01:51:01;;;;;;;25.00;8.67;;;;;;;4.83;94.93;97926.00;4190416;28;20963;-63
2022/04/09 01:53:27;;;;;;;14.90;8.03;;;;;;;4.79;94.66;97923.88;4178194;28;20243;-63
2022/04/09 01:55:54;;;;;;;17.57;7.53;;;;;;;4.80;94.83;97934.25;4189416;28;20507;-63
2022/04/09 01:58:21;;;;;;;13.77;8.07;;;;;;;4.83;94.86;97928.66;4183630;28;21653;-61
2022/04/09 02:00:47;;;;;;;17.77;7.83;;;;;;;4.78;95.32;97928.34;4183652;28;20241;-63
2022/04/09 02:03:14;;;;;;;14.57;7.70;;;;;;;4.78;95.12;97927.53;4170829;28;20384;-61
2022/04/09 02:05:41;;;;;;;16.37;7.43;;;;;;;4.75;95.17;97927.84;4176925;28;20735;-63
2022/04/09 02:08:08;;;;;;;15.67;8.20;;;;;;;4.80;94.77;97917.63;4181025;28;20242;-64
2022/04/09 02:10:37;;;;;;;17.93;8.33;;;;;;;4.76;95.33;97908.44;4190672;28;20542;-63
2022/04/09 02:13:10;;;;;;;17.57;8.47;;;;;;;4.76;95.54;97916.34;4175778;28;25174;-65
2022/04/09 02:15:37;;;;;;;14.10;8.20;;;;;;;4.69;96.65;97907.47;4178392;28;20285;-62
2022/04/09 02:18:03;;;;;;;15.87;8.80;;;;;;;4.70;97.07;97904.66;4189688;28;20238;-63
2022/04/09 02:20:30;;;;;;;20.03;9.60;;;;;;;4.68;97.27;97909.25;4181961;28;25345;-63
2022/04/09 02:22:57;;;;;;;19.00;9.47;;;;;;;4.63;97.63;97901.03;4199905;28;20252;-62
2022/04/09 02:25:23;;;;;;;19.73;9.70;;;;;;;4.63;98.16;97903.69;4189459;28;20252;-65
2022/04/09 02:27:50;;;;;;;17.50;8.97;;;;;;;4.59;97.86;97912.94;4194251;28;22317;-62
2022/04/09 02:30:16;;;;;;;16.17;9.00;;;;;;;4.54;98.18;97904.69;4174793;28;20255;-62
2022/04/09 02:32:51;;;;;;;20.13;8.83;;;;;;;4.51;99.04;97900.59;4182291;28;20248;-61
2022/04/09 02:35:18;;;;;;;17.73;9.47;;;;;;;4.55;99.38;97912.44;4193318;28;20286;-61
2022/04/09 02:37:45;;;;;;;16.57;8.93;;;;;;;4.51;98.49;97903.22;4166222;28;20277;-62
2022/04/09 02:40:12;;;;;;;16.70;8.47;;;;;;;4.48;99.11;97910.66;4190652;28;20229;-64
2022/04/09 02:42:39;;;;;;;18.20;8.43;;;;;;;4.44;99.30;97910.16;4188917;28;20419;-64
2022/04/09 02:45:07;;;;;;;19.30;8.97;;;;;;;4.45;99.93;97901.28;4175249;28;20243;-65
2022/04/09 02:47:34;;;;;;;15.53;8.23;;;;;;;4.43;99.67;97898.00;4179631;28;20247;-64
2022/04/09 02:50:01;;;;;;;18.07;8.57;;;;;;;4.42;100.00;97901.59;4192071;28;20295;-63
2022/04/09 02:52:34;;;;;;;15.70;8.20;;;;;;;4.33;100.00;97911.34;4170607;28;20286;-61
2022/04/09 02:55:02;;;;;;;16.00;8.50;;;;;;;4.36;100.00;97918.09;4168056;28;20243;-61
2022/04/09 02:57:29;;;;;;;15.90;9.37;;;;;;;4.40;100.00;97919.38;4188523;28;20239;-62
2022/04/09 02:59:55;;;;;;;15.80;8.80;;;;;;;4.41;100.00;97910.50;4174557;28;21200;-65
2022/04/09 03:02:22;;;;;;;16.23;9.70;;;;;;;4.46;100.00;97910.00;4191527;28;20236;-64
2022/04/09 03:04:51;;;;;;;16.27;9.37;;;;;;;4.37;100.00;97911.81;4195103;28;20315;-64
2022/04/09 03:07:18;;;;;;;17.77;9.50;;;;;;;4.33;100.00;97900.81;4172133;28;22069;-64
2022/04/09 03:09:45;;;;;;;18.20;9.37;;;;;;;4.30;100.00;97906.41;4184052;28;23707;-64
2022/04/09 03:12:12;;;;;;;18.03;9.20;;;;;;;4.36;100.00;97912.81;4184008;28;20281;-65
2022/04/09 03:14:38;;;;;;;16.27;9.63;;;;;;;4.34;100.00;97915.59;4186555;28;21682;-64
2022/04/09 03:17:05;;;;;;;15.53;9.37;;;;;;;4.28;100.00;97910.19;4179364;28;23587;-64
2022/04/09 03:19:31;;;;;;;13.67;8.40;;;;;;;4.29;100.00;97911.84;4177691;28;20320;-65
2022/04/09 03:21:58;;;;;;;18.00;9.33;;;;;;;4.30;100.00;97908.22;4190083;28;20785;-64
2022/04/09 03:24:24;;;;;;;12.93;8.53;;;;;;;4.29;100.00;97912.66;4185624;28;21038;-65
2022/04/09 03:26:51;;;;;;;16.07;8.63;;;;;;;4.32;100.00;97920.22;4203414;28;20305;-63
2022/04/09 03:29:17;;;;;;;13.67;8.17;;;;;;;4.34;100.00;97917.44;4182183;28;21792;-65
2022/04/09 03:31:44;;;;;;;16.90;8.83;;;;;;;4.34;100.00;97930.59;4195646;28;20244;-64
2022/04/09 03:34:10;;;;;;;14.77;7.47;;;;;;;4.32;100.00;97917.59;4168750;28;20244;-63
2022/04/09 03:36:42;;;;;;;13.50;7.40;;;;;;;4.31;100.00;97921.22;4164735;28;21829;-64
2022/04/09 03:39:08;;;;;;;15.00;8.13;;;;;;;4.30;100.00;97924.00;4187430;28;20308;-63
2022/04/09 03:41:35;;;;;;;14.03;7.83;;;;;;;4.28;100.00;97923.34;4179240;28;20478;-64
2022/04/09 03:44:01;;;;;;;13.40;7.30;;;;;;;4.30;100.00;97926.63;4182705;28;20236;-66
2022/04/09 03:46:29;;;;;;;10.03;6.60;;;;;;;4.31;100.00;97915.97;4185482;28;21711;-62
2022/04/09 03:48:55;;;;;;;11.00;7.17;;;;;;;4.33;100.00;97928.94;4188615;28;20657;-63
2022/04/09 03:51:22;;;;;;;12.47;7.97;;;;;;;4.36;100.00;97925.97;4197750;28;20252;-63
2022/04/09 03:53:48;;;;;;;12.47;7.13;;;;;;;4.34;100.00;97925.31;4182451;28;25494;-64
2022/04/09 03:56:15;;;;;;;11.27;6.63;;;;;;;4.34;100.00;97925.31;4174893;28;21518;-64
2022/04/09 03:58:43;;;;;;;12.83;7.10;;;;;;;4.31;100.00;97941.44;4190188;28;20237;-62
2022/04/09 04:01:09;;;;;;;10.90;7.03;;;;;;;4.35;100.00;97937.50;4171435;28;22250;-65
2022/04/09 04:03:37;;;;;;;12.50;7.40;;;;;;;4.28;100.00;97939.97;4182836;28;20239;-63
2022/04/09 04:06:04;;;;;;;12.93;7.23;;;;;;;4.28;100.00;97934.69;4191085;28;20649;-64
2022/04/09 04:08:30;;;;;;;10.30;6.97;;;;;;;4.31;100.00;97941.44;4154985;28;20961;-63
2022/04/09 04:10:57;;;;;;;12.33;7.23;;;;;;;4.30;100.00;97943.25;4174568;28;21877;-66
2022/04/09 04:13:23;;;;;;;12.83;7.10;;;;;;;4.32;100.00;97943.09;4189368;28;21958;-63
2022/04/09 04:15:51;;;;;;;17.97;9.13;;;;;;;4.33;100.00;97952.63;4177905;28;20260;-62
2022/04/09 04:18:18;;;;;;;10.30;7.20;;;;;;;4.37;100.00;97960.03;4193630;28;21647;-63
2022/04/09 04:20:44;;;;;;;10.97;7.73;;;;;;;4.29;100.00;97959.22;4191341;28;20241;-63
2022/04/09 04:23:11;;;;;;;14.63;8.47;;;;;;;4.18;100.00;97978.81;4182181;28;20242;-63
2022/04/09 04:25:37;;;;;;;16.43;8.90;;;;;;;4.18;100.00;97976.16;4158723;28;21028;-63
2022/04/09 04:28:04;;;;;;;16.30;9.97;;;;;;;4.17;100.00;97978.00;4189906;28;22189;-63
2022/04/09 04:30:30;;;;;;;17.90;10.07;;;;;;;4.24;100.00;97983.41;4184618;28;20827;-62
2022/04/09 04:32:57;;;;;;;22.27;11.37;;;;;;;4.08;100.00;97994.75;4192581;28;20237;-64
2022/04/09 04:35:24;;;;;;;18.50;11.23;;;;;;;3.97;100.00;97995.09;4188012;28;20245;-63
2022/04/09 04:37:50;;;;;;;21.70;12.90;;;;;;;3.99;100.00;97996.56;4195693;28;20250;-64
2022/04/09 04:40:17;;;;;;;21.50;13.63;;;;;;;4.04;100.00;98000.50;4193539;28;21547;-63
2022/04/09 04:42:45;;;;;;;24.80;15.47;;;;;;;3.97;100.00;98008.22;4190804;28;20658;-67
2022/04/09 04:45:12;;;;;;;26.97;14.90;;;;;;;4.00;100.00;98006.13;4191657;28;20838;-63
2022/04/09 04:47:45;;;;;;;21.90;13.50;;;;;;;4.00;100.00;98005.28;4181062;28;21483;-64
2022/04/09 04:50:14;;;;;;;19.23;11.53;;;;;;;3.91;100.00;97998.34;4175849;28;20241;-64
2022/04/09 04:52:41;;;;;;;18.17;12.07;;;;;;;3.85;100.00;98010.34;4163008;28;20245;-63
2022/04/09 04:55:09;;;;;;;16.03;9.80;;;;;;;3.71;100.00;98003.91;4165173;28;20241;-63
2022/04/09 04:57:42;;;;;;;16.27;9.63;;;;;;;3.66;100.00;97998.31;4194077;28;20239;-63
2022/04/09 05:00:10;;;;;;;13.90;9.10;;;;;;;3.71;100.00;97992.59;4201635;28;20244;-64
2022/04/09 05:02:37;;;;;;;12.10;8.67;;;;;;;3.69;100.00;97998.00;4187135;28;20242;-63
2022/04/09 05:05:04;;;;;;;14.30;9.20;;;;;;;3.53;100.00;98008.47;4180555;28;20233;-65
2022/04/09 05:07:42;;;;;;;15.77;9.60;;;;;;;3.62;100.00;98017.22;4194086;28;20741;-62
2022/04/09 05:10:12;;;;;;;20.50;11.97;;;;;;;3.50;100.00;98019.31;4184015;28;21363;-62
2022/04/09 05:12:39;;;;;;;21.23;12.03;;;;;;;3.49;100.00;98025.53;4201758;28;21792;-63
2022/04/09 05:15:08;;;;;;;20.63;12.33;;;;;;;3.55;100.00;98035.44;4190223;28;20299;-63
2022/04/09 05:17:35;;;;;;;19.03;11.47;;;;;;;3.40;100.00;98042.28;4188189;28;20307;-64
2022/04/09 05:20:03;;;;;;;21.50;11.40;;;;;;;3.35;100.00;98042.78;4182614;28;23762;-64
2022/04/09 05:22:31;;;;;;;16.33;10.10;;;;;;;3.29;100.00;98051.28;4201216;28;20234;-63
2022/04/09 05:24:58;;;;;;;12.97;8.10;;;;;;;3.27;100.00;98048.78;4200510;28;20680;-64
2022/04/09 05:27:25;;;;;;;15.13;7.87;;;;;;;3.20;100.00;98042.53;4202380;28;20828;-63
2022/04/09 05:29:52;;;;;;;14.83;7.93;;;;;;;3.31;100.00;98044.06;4195874;28;20236;-64
2022/04/09 05:32:18;;;;;;;19.33;9.10;;;;;;;3.40;100.00;98048.38;4209089;28;20270;-67
2022/04/09 05:34:46;;;;;;;15.13;8.33;;;;;;;3.45;100.00;98045.28;4212225;28;22477;-66
2022/04/09 05:37:13;;;;;;;14.07;8.40;;;;;;;3.46;100.00;98039.00;4210074;28;20239;-63
2022/04/09 05:39:41;;;;;;;20.07;9.07;;;;;;;3.68;100.00;98029.72;4198809;28;20229;-65
2022/04/09 05:42:08;;;;;;;14.33;8.70;;;;;;;3.85;100.00;98025.31;4214935;28;21300;-67
2022/04/09 05:44:34;;;;;;;17.07;9.10;;;;;;;3.90;100.00;98034.38;4205507;28;21215;-65
2022/04/09 05:47:01;;;;;;;13.83;8.20;;;;;;;3.90;100.00;98036.19;4177096;28;20468;-64
2022/04/09 05:49:28;;;;;;;14.37;8.10;;;;;;;3.87;100.00;98042.59;4200612;28;20389;-65
2022/04/09 05:51:55;;;;;;;17.90;8.53;;;;;;;4.06;100.00;98044.09;4170824;28;24319;-66
2022/04/09 05:54:21;;;;;;;15.60;8.53;;;;;;;3.96;100.00;98048.69;4191903;28;20296;-65
2022/04/09 05:56:48;;;;;;;14.50;8.93;;;;;;;4.10;100.00;98050.69;4186590;28;21828;-65
2022/04/09 05:59:14;;;;;;;13.37;8.17;;;;;;;4.12;100.00;98042.63;4180137;28;20245;-63
2022/04/09 06:01:46;;;;;;;20.00;8.07;;;;;;;4.30;100.00;98040.66;4211595;28;21623;-65
2022/04/09 06:04:16;;;;;;;15.03;7.70;;;;;;;4.31;100.00;98044.09;4196664;28;20237;-64
2022/04/09 06:06:42;;;;;;;14.60;7.20;;;;;;;4.35;100.00;98050.69;4179249;28;20230;-66
2022/04/09 06:09:10;;;;;;;14.73;7.80;;;;;;;4.43;100.00;98055.97;4184427;28;22330;-63
2022/04/09 06:11:36;;;;;;;13.83;7.30;;;;;;;4.43;100.00;98055.97;4188978;28;20528;-65
2022/04/09 06:14:03;;;;;;;14.00;7.50;;;;;;;4.50;100.00;98072.75;4199062;28;20233;-64
2022/04/09 06:16:33;;;;;;;14.10;7.67;;;;;;;4.68;100.00;98074.41;4190475;28;20229;-65
2022/04/09 06:19:00;;;;;;;19.20;7.90;;;;;;;4.71;100.00;98081.97;4173267;28;20312;-66
2022/04/09 06:21:29;;;;;;;13.27;7.27;;;;;;;4.80;100.00;98083.59;4192550;28;23103;-66
2022/04/09 06:23:56;;;;;;;14.20;7.77;;;;;;;4.78;100.00;98080.34;4184532;28;20253;-64
2022/04/09 06:26:23;;;;;;;15.53;7.43;;;;;;;4.83;100.00;98078.84;4184335;28;21074;-65
2022/04/09 06:28:52;;;;;;;10.40;6.87;;;;;;;4.91;100.00;98085.91;4204508;28;20673;-65
2022/04/09 06:31:19;;;;;;;14.30;7.17;;;;;;;4.91;100.00;98080.63;4197902;28;20239;-64
2022/04/09 06:33:46;;;;;;;12.63;7.20;;;;;;;4.92;100.00;98076.19;4242245;28;20233;-68
2022/04/09 06:36:13;;;;;;;16.00;6.90;;;;;;;5.01;99.72;98083.06;4209716;28;25396;-66
2022/04/09 06:38:39;;;;;;;14.60;7.07;;;;;;;5.00;99.14;98082.25;4231700;28;21960;-66
2022/04/09 06:41:06;;;;;;;14.97;6.80;;;;;;;5.07;98.49;98091.13;4202241;28;20232;-67
2022/04/09 06:43:33;;;;;;;11.50;7.37;;;;;;;5.19;99.16;98082.88;4211480;28;20323;-67
2022/04/09 06:45:59;;;;;;;10.83;6.83;;;;;;;5.38;97.75;98087.75;4225466;28;21593;-69
2022/04/09 06:48:26;;;;;;;10.70;6.80;;;;;;;5.54;97.75;98094.00;4201575;28;22186;-66
2022/04/09 06:50:53;;;;;;;16.00;6.87;;;;;;;5.55;95.64;98091.19;4193582;28;20327;-69
2022/04/09 06:53:20;;;;;;;11.47;6.70;;;;;;;5.58;94.63;98100.56;4188456;28;20240;-65
2022/04/09 06:55:49;;;;;;;13.13;7.63;;;;;;;5.74;95.35;98094.41;4198624;28;20515;-66
2022/04/09 06:58:16;;;;;;;12.90;7.10;;;;;;;5.96;93.33;98098.13;4226665;28;20287;-66
2022/04/09 07:00:44;;;;;;;14.73;7.47;;;;;;;6.13;92.88;98102.31;4235881;28;20323;-65
2022/04/09 07:03:12;;;;;;;13.00;6.50;;;;;;;6.25;91.67;98102.72;4216592;28;20718;-67
2022/04/09 07:05:40;;;;;;;13.60;6.37;;;;;;;6.34;91.45;98114.88;4212447;28;21096;-71
2022/04/09 07:08:08;;;;;;;12.57;6.13;;;;;;;6.28;88.38;98119.06;4199730;28;20765;-74
2022/04/09 07:10:38;;;;;;;11.17;6.60;;;;;;;6.17;88.02;98131.84;4187041;28;20258;-64
2022/04/09 07:13:05;;;;;;;11.90;6.30;;;;;;;6.13;87.91;98132.19;4182715;28;20331;-68
2022/04/09 07:15:34;;;;;;;13.97;6.60;;;;;;;6.06;88.32;98139.16;4214594;28;20556;-67
2022/04/09 07:18:00;;;;;;;14.33;7.30;;;;;;;6.11;89.87;98146.53;4229736;28;20290;-64
2022/04/09 07:20:35;;;;;;;16.90;7.27;;;;;;;6.07;90.35;98150.53;4219389;28;21224;-66
2022/04/09 07:23:02;;;;;;;16.23;8.47;;;;;;;6.18;89.58;98166.00;4220149;28;20237;-68
2022/04/09 07:25:30;;;;;;;21.93;7.53;;;;;;;6.16;89.92;98169.78;4204426;28;22991;-66
2022/04/09 07:27:59;;;;;;;13.63;8.77;;;;;;;6.17;90.36;98174.91;4222890;28;20299;-65
2022/04/09 07:30:26;;;;;;;15.57;8.57;;;;;;;6.13;90.21;98184.16;4202781;28;20693;-64
2022/04/09 07:32:58;;;;;;;14.57;8.00;;;;;;;6.25;89.11;98189.88;4222523;28;20283;-66
2022/04/09 07:35:26;;;;;;;14.60;7.47;;;;;;;6.22;89.98;98191.06;4191287;28;20235;-66
2022/04/09 07:37:55;;;;;;;14.60;8.50;;;;;;;6.22;90.94;98196.34;4204493;28;20889;-67
2022/04/09 07:40:24;;;;;;;19.60;9.33;;;;;;;6.22;91.85;98195.50;4275459;28;20252;-65
2022/04/09 07:42:52;;;;;;;19.33;9.90;;;;;;;6.18;90.27;98199.50;4242601;28;20445;-65
2022/04/09 07:45:19;;;;;;;18.37;9.53;;;;;;;5.97;89.79;98193.00;4231472;28;20249;-67
2022/04/09 07:47:45;;;;;;;16.97;8.73;;;;;;;5.93;89.69;98192.47;4303655;28;20244;-66
2022/04/09 07:50:13;;;;;;;21.17;9.33;;;;;;;6.10;90.19;98208.28;4260134;28;20232;-68
2022/04/09 07:52:42;;;;;;;17.60;9.17;;;;;;;6.09;90.52;98212.75;4231914;28;22211;-68
2022/04/09 07:55:17;;;;;;;20.90;9.40;;;;;;;6.12;91.18;98227.41;4222457;28;21753;-67
2022/04/09 07:57:46;;;;;;;19.67;9.57;;;;;;;6.40;89.18;98240.19;4270156;28;20298;-67
2022/04/09 08:00:14;;;;;;;19.97;9.30;;;;;;;6.25;89.95;98243.53;4235035;28;21613;-69
2022/04/09 08:02:41;;;;;;;16.23;9.23;;;;;;;6.36;88.63;98246.78;4284147;28;20303;-67
2022/04/09 08:05:10;;;;;;;17.60;9.07;;;;;;;6.43;87.49;98250.38;4255300;28;20246;-69
2022/04/09 08:07:38;;;;;;;18.57;8.77;;;;;;;6.46;87.91;98252.69;4244025;28;21242;-68
2022/04/09 08:10:06;;;;;;;16.07;8.00;;;;;;;6.45;87.81;98265.06;4206542;28;23535;-69
2022/04/09 08:12:32;;;;;;;19.43;8.63;;;;;;;6.34;88.44;98258.38;4220865;28;20225;-69
2022/04/09 08:15:00;;;;;;;13.27;7.93;;;;;;;6.12;87.03;98274.94;4227647;28;20298;-69
2022/04/09 08:17:27;;;;;;;18.20;8.83;;;;;;;6.21;87.79;98283.66;4304248;28;20239;-66
2022/04/09 08:19:58;;;;;;;16.40;7.90;;;;;;;6.36;86.92;98283.78;4256480;28;21238;-68
2022/04/09 08:22:27;;;;;;;14.57;8.27;;;;;;;6.41;87.56;98299.94;4244210;28;20263;-67
2022/04/09 08:24:54;;;;;;;16.50;7.90;;;;;;;6.36;84.66;98291.69;4193651;28;21389;-65
2022/04/09 08:27:21;;;;;;;18.03;8.13;;;;;;;6.41;84.64;98305.22;4197131;28;20243;-68
2022/04/09 08:29:51;;;;;;;15.80;7.57;;;;;;;6.53;82.85;98293.25;4260690;28;21427;-65
2022/04/09 08:32:18;;;;;;;13.27;7.17;;;;;;;6.47;82.29;98300.06;4247852;28;20342;-67
2022/04/09 08:34:44;;;;;;;13.00;7.13;;;;;;;6.59;83.64;98308.44;4225507;28;21291;-69
2022/04/09 08:37:12;;;;;;;15.07;6.27;;;;;;;6.49;81.04;98307.84;4180311;28;21906;-67
2022/04/09 08:39:38;;;;;;;17.77;6.70;;;;;;;6.39;80.79;98320.41;4203879;28;20345;-67
2022/04/09 08:42:05;;;;;;;11.33;6.63;;;;;;;6.49;81.07;98321.88;4231248;28;20244;-66
2022/04/09 08:44:33;;;;;;;13.83;6.73;;;;;;;6.59;79.58;98321.66;4246446;28;20690;-66
2022/04/09 08:47:00;;;;;;;16.30;7.07;;;;;;;6.28;80.42;98337.47;4223432;28;21277;-68
2022/04/09 08:49:29;;;;;;;15.67;6.80;;;;;;;6.14;81.38;98336.34;4199744;28;21673;-67
2022/04/09 08:51:56;;;;;;;15.13;6.83;;;;;;;6.36;80.67;98340.06;4215942;28;22401;-67
2022/04/09 08:54:22;;;;;;;15.67;7.20;;;;;;;6.38;82.01;98334.63;4225755;28;20241;-67
2022/04/09 08:56:50;;;;;;;17.17;7.57;;;;;;;6.36;81.90;98333.97;4213333;28;20232;-67
2022/04/09 08:59:17;;;;;;;17.47;7.40;;;;;;;6.40;81.26;98330.00;4189961;28;20255;-70
2022/04/09 09:01:44;;;;;;;17.47;7.03;;;;;;;6.55;80.81;98334.41;4227437;28;20720;-68
2022/04/09 09:04:11;;;;;;;17.00;7.67;;;;;;;6.60;82.24;98340.97;4206650;28;20758;-68
2022/04/09 09:06:40;;;;;;;22.03;7.67;;;;;;;6.81;80.61;98328.00;4214243;28;23654;-67
2022/04/09 09:09:08;;;;;;;17.53;7.57;;;;;;;6.96;79.45;98336.84;4229330;28;20244;-69
2022/04/09 09:11:46;;;;;;;15.60;7.00;;;;;;;7.08;77.48;98337.28;4234386;28;20232;-67
2022/04/09 09:14:25;;;;;;;19.37;7.33;;;;;;;7.30;78.21;98337.47;4282560;28;20238;-66
2022/04/09 09:16:53;;;;;;;16.73;7.40;;;;;;;7.32;78.08;98346.88;4237879;28;20244;-71
2022/04/09 09:19:21;;;;;;;18.27;7.97;;;;;;;7.29;77.71;98341.13;4195521;28;20720;-67
2022/04/09 09:22:01;;;;;;;19.10;8.00;;;;;;;7.34;73.89;98360.75;4207720;28;22806;-67
2022/04/09 09:24:30;;;;;;;22.43;8.07;;;;;;;7.22;76.48;98367.44;4246897;28;22413;-65
2022/04/09 09:26:59;;;;;;;14.90;7.27;;;;;;;7.24;77.24;98370.75;4226482;28;20292;-64
2022/04/09 09:29:31;;;;;;;19.23;7.63;;;;;;;7.45;78.03;98387.81;4231037;28;20233;-67
2022/04/09 09:32:00;;;;;;;18.10;8.83;;;;;;;7.48;77.72;98388.28;4227844;28;20236;-65
2022/04/09 09:34:28;;;;;;;17.33;8.10;;;;;;;7.45;73.12;98391.28;4248328;28;20338;-65
2022/04/09 09:36:56;;;;;;;18.40;7.77;;;;;;;7.58;71.97;98383.56;4276038;28;20237;-66
2022/04/09 09:39:24;;;;;;;17.27;8.20;;;;;;;7.79;70.22;98374.16;4238427;28;20308;-64
2022/04/09 09:41:58;;;;;;;22.73;9.37;;;;;;;7.90;71.07;98384.31;4289845;28;20329;-62
2022/04/09 09:44:26;;;;;;;18.97;9.10;;;;;;;8.02;72.21;98385.53;4234377;28;22963;-67
2022/04/09 09:46:54;;;;;;;19.73;9.80;;;;;;;8.00;70.66;98390.19;4212868;28;20239;-65
2022/04/09 09:49:25;;;;;;;15.37;7.83;;;;;;;7.89;68.88;98382.69;4241624;28;21861;-66
2022/04/09 09:52:02;;;;;;;14.93;7.00;;;;;;;7.97;65.56;98406.44;4282338;28;20233;-66
2022/04/09 09:54:29;;;;;;;19.00;7.47;;;;;;;7.93;65.86;98393.75;4245357;28;22783;-65
2022/04/09 09:56:56;;;;;;;18.13;7.77;;;;;;;8.00;65.79;98397.31;4204496;28;21727;-68
2022/04/09 09:59:23;;;;;;;15.90;7.80;;;;;;;8.10;66.38;98402.34;4236616;28;20236;-66
2022/04/09 10:01:51;;;;;;;16.33;7.37;;;;;;;8.19;64.42;98419.84;4264164;28;20520;-69
2022/04/09 10:04:19;;;;;;;15.97;7.10;;;;;;;8.19;64.10;98425.13;4217790;28;21282;-65
2022/04/09 10:06:45;;;;;;;19.03;6.40;;;;;;;8.38;60.68;98431.75;4260414;28;20242;-70
2022/04/09 10:09:16;;;;;;;14.03;6.23;;;;;;;8.46;59.70;98431.72;4205398;28;20238;-65
2022/04/09 10:11:47;;;;;;;18.03;6.60;;;;;;;8.09;59.91;98435.97;4227649;28;20232;-64
2022/04/09 10:14:14;;;;;;;13.60;5.87;;;;;;;7.96;61.28;98443.69;4213473;28;20238;-62
2022/04/09 10:16:43;;;;;;;14.50;5.83;;;;;;;7.63;60.80;98453.69;4172150;28;20518;-65
2022/04/09 10:19:10;;;;;;;14.50;4.93;;;;;;;7.53;61.27;98454.72;4200147;28;20337;-67
2022/04/09 10:21:42;;;;;;;10.57;4.60;;;;;;;7.59;61.14;98454.06;4202155;28;20233;-63
2022/04/09 10:24:20;;;;;;;12.93;4.17;;;;;;;7.56;60.96;98454.41;4183350;28;20260;-64
2022/04/09 10:26:47;;;;;;;11.63;4.90;;;;;;;7.97;59.50;98477.94;4201314;28;21757;-66
2022/04/09 10:29:13;;;;;;;10.43;4.50;;;;;;;7.50;60.87;98478.09;4190641;28;25453;-67
2022/04/09 10:31:41;;;;;;;11.60;4.90;;;;;;;7.68;61.08;98465.41;4250893;28;20673;-64
2022/04/09 10:34:12;;;;;;;12.20;4.63;;;;;;;7.76;60.96;98464.53;4203915;28;21646;-65
2022/04/09 10:36:44;;;;;;;11.47;4.40;;;;;;;7.85;59.40;98470.59;4208115;28;20320;-65
2022/04/09 10:39:38;;;;;;;12.20;4.90;;;;;;;7.98;57.86;98474.31;4238722;28;20657;-64
2022/04/09 10:42:06;;;;;;;9.83;4.57;;;;;;;7.84;58.29;98485.66;4198214;28;20422;-64
2022/04/09 10:44:42;;;;;;;9.63;4.33;;;;;;;8.11;58.00;98496.75;4216101;28;21518;-66
2022/04/09 10:47:14;;;;;;;9.83;3.60;;;;;;;8.23;56.18;98501.44;4211681;28;20315;-66
2022/04/09 10:50:01;;;;;;;14.67;4.60;;;;;;;8.27;56.84;98498.44;4214788;28;23341;-65
2022/04/09 10:52:37;;;;;;;12.20;4.23;;;;;;;8.54;55.59;98515.63;4222399;28;22260;-66
2022/04/09 10:55:10;;;;;;;8.53;3.40;;;;;;;7.98;56.95;98498.16;4215975;28;22795;-65
2022/04/09 10:57:44;;;;;;;11.60;4.27;;;;;;;8.07;58.04;98506.84;4231147;28;20423;-69
2022/04/09 11:00:22;;;;;;;13.20;4.40;;;;;;;7.90;58.15;98503.50;4195926;28;20237;-65
2022/04/09 11:03:12;;;;;;;12.23;4.40;;;;;;;7.79;58.16;98501.25;4212085;28;20252;-66
2022/04/09 11:05:41;;;;;;;17.67;4.47;;;;;;;7.96;59.06;98508.09;4196545;28;20269;-67
2022/04/09 11:08:13;;;;;;;12.93;4.53;;;;;;;8.15;58.29;98506.00;4210571;28;20234;-64
2022/04/09 11:10:39;;;;;;;8.20;4.13;;;;;;;8.12;58.81;98522.22;4193016;28;25247;-67
2022/04/09 11:13:10;;;;;;;9.10;3.60;;;;;;;8.24;54.65;98526.09;4196212;28;21034;-64
2022/04/09 11:15:39;;;;;;;8.97;2.83;;;;;;;8.15;53.46;98549.19;4211590;28;20246;-66
2022/04/09 11:18:07;;;;;;;5.33;2.90;;;;;;;8.50;49.66;98548.78;4229385;28;20339;-65
2022/04/09 11:20:36;;;;;;;6.07;2.90;;;;;;;8.42;49.92;98542.56;4216897;28;20276;-66
2022/04/09 11:23:12;;;;;;;6.97;3.10;;;;;;;8.25;52.17;98548.97;4193256;28;22442;-66
2022/04/09 11:25:43;;;;;;;8.53;3.00;;;;;;;8.53;52.61;98543.97;4195671;28;25171;-68
2022/04/09 11:28:17;;;;;;;10.67;3.20;;;;;;;8.39;52.97;98550.84;4225352;28;20280;-66
2022/04/09 11:30:58;;;;;;;11.10;3.30;;;;;;;8.42;51.68;98571.72;4212754;28;20237;-66
2022/04/09 11:33:25;;;;;;;6.90;3.20;;;;;;;8.40;51.79;98560.47;4211567;28;20407;-69
2022/04/09 11:35:52;;;;;;;5.30;2.17;;;;;;;8.12;51.92;98559.31;4211245;28;20229;-65